EFW2744 EGKK-EDDL
Flight info
| Callsign | EFW2744 |
|---|---|
| Flight time | N/A |
| Altitude | 33000 |
| Route | DVR L9 KONAN/N0437F330 DCT KOK UL607 SPI Y862 KENUM M170 NVO T857 BIKMU BIKMU1A |
| Aircraft | A319/M-SDE3FGHIRWY/LB1 |
Departure
| Time | 2026-05-04 18:12 |
|---|---|
| Airport | London Gatwick Airport (EGKK) |
Arrival
| Time | N/A |
|---|---|
| Airport | Düsseldorf Airport (EDDL) |
| Time | Latitude | Longitude | Altitude | Speed | Heading |
|---|---|---|---|---|---|
| 2026-05-04 17:40 | 51.15550 | -0.17098 | 200 ft | 0 kts | 163° |
| 2026-05-04 17:49 | 51.15554 | -0.17100 | 200 ft | 2 kts | 163° |
| 2026-05-04 17:50 | 51.15568 | -0.17106 | 200 ft | 2 kts | 163° |
| 2026-05-04 17:50 | 51.15583 | -0.17113 | 200 ft | 2 kts | 163° |
| 2026-05-04 17:50 | 51.15597 | -0.17120 | 199 ft | 2 kts | 163° |
| 2026-05-04 17:50 | 51.15611 | -0.17127 | 199 ft | 1 kts | 175° |
| 2026-05-04 17:51 | 51.15625 | -0.17121 | 199 ft | 2 kts | 220° |
| 2026-05-04 17:51 | 51.15633 | -0.17106 | 199 ft | 0 kts | 252° |
| 2026-05-04 17:51 | 51.15634 | -0.17095 | 199 ft | 1 kts | 257° |
| 2026-05-04 17:51 | 51.15634 | -0.17093 | 199 ft | 0 kts | 257° |
| 2026-05-04 17:55 | 51.15630 | -0.17120 | 199 ft | 6 kts | 257° |
| 2026-05-04 17:55 | 51.15606 | -0.17279 | 199 ft | 17 kts | 258° |
| 2026-05-04 17:55 | 51.15580 | -0.17415 | 199 ft | 12 kts | 234° |
| 2026-05-04 17:56 | 51.15534 | -0.17529 | 199 ft | 12 kts | 253° |
| 2026-05-04 17:56 | 51.15516 | -0.17672 | 199 ft | 13 kts | 257° |
| 2026-05-04 17:56 | 51.15493 | -0.17825 | 199 ft | 14 kts | 257° |
| 2026-05-04 17:56 | 51.15474 | -0.17966 | 199 ft | 6 kts | 257° |
| 2026-05-04 17:57 | 51.15463 | -0.18039 | 199 ft | 7 kts | 257° |
| 2026-05-04 17:57 | 51.15453 | -0.18114 | 199 ft | 6 kts | 258° |
| 2026-05-04 17:57 | 51.15443 | -0.18192 | 199 ft | 8 kts | 258° |
| 2026-05-04 17:57 | 51.15418 | -0.18269 | 199 ft | 8 kts | 211° |
| 2026-05-04 17:58 | 51.15357 | -0.18267 | 199 ft | 9 kts | 170° |
| 2026-05-04 17:58 | 51.15281 | -0.18241 | 200 ft | 13 kts | 166° |
| 2026-05-04 17:58 | 51.15188 | -0.18256 | 200 ft | 16 kts | 238° |
| 2026-05-04 17:58 | 51.15161 | -0.18454 | 200 ft | 19 kts | 260° |
| 2026-05-04 17:59 | 51.15136 | -0.18657 | 200 ft | 19 kts | 258° |
| 2026-05-04 17:59 | 51.15109 | -0.18865 | 200 ft | 19 kts | 258° |
| 2026-05-04 17:59 | 51.15051 | -0.19280 | 201 ft | 19 kts | 259° |
| 2026-05-04 18:00 | 51.15023 | -0.19489 | 201 ft | 19 kts | 258° |
| 2026-05-04 18:00 | 51.14994 | -0.19697 | 201 ft | 19 kts | 258° |
| 2026-05-04 18:00 | 51.14966 | -0.19904 | 201 ft | 19 kts | 258° |
| 2026-05-04 18:00 | 51.14937 | -0.20114 | 201 ft | 19 kts | 257° |
| 2026-05-04 18:01 | 51.14909 | -0.20322 | 202 ft | 19 kts | 258° |
| 2026-05-04 18:01 | 51.14880 | -0.20528 | 202 ft | 19 kts | 257° |
| 2026-05-04 18:01 | 51.14852 | -0.20736 | 202 ft | 19 kts | 258° |
| 2026-05-04 18:02 | 51.14797 | -0.21130 | 204 ft | 12 kts | 251° |
| 2026-05-04 18:02 | 51.14769 | -0.21265 | 204 ft | 13 kts | 257° |
| 2026-05-04 18:02 | 51.14753 | -0.21373 | 204 ft | 7 kts | 240° |
| 2026-05-04 18:02 | 51.14681 | -0.21388 | 204 ft | 13 kts | 150° |
| 2026-05-04 18:03 | 51.14623 | -0.21327 | 204 ft | 3 kts | 167° |
| 2026-05-04 18:03 | 51.14622 | -0.21327 | 204 ft | 0 kts | 168° |
| 2026-05-04 18:03 | 51.14616 | -0.21325 | 204 ft | 1 kts | 168° |
| 2026-05-04 18:04 | 51.14615 | -0.21325 | 204 ft | 0 kts | 168° |
| 2026-05-04 18:05 | 51.14612 | -0.21324 | 204 ft | 0 kts | 168° |
| 2026-05-04 18:10 | 51.14608 | -0.21322 | 204 ft | 4 kts | 168° |
| 2026-05-04 18:10 | 51.14549 | -0.21280 | 204 ft | 13 kts | 135° |
| 2026-05-04 18:10 | 51.14523 | -0.21145 | 204 ft | 12 kts | 82° |
| 2026-05-04 18:10 | 51.14529 | -0.21094 | 204 ft | 0 kts | 77° |
| 2026-05-04 18:11 | 51.14530 | -0.21092 | 204 ft | 0 kts | 77° |
| 2026-05-04 18:11 | 51.14549 | -0.20955 | 203 ft | 42 kts | 77° |
| 2026-05-04 18:11 | 51.14668 | -0.20091 | 202 ft | 116 kts | 77° |
| 2026-05-04 18:11 | 51.14881 | -0.18522 | 255 ft | 172 kts | 78° |
| 2026-05-04 18:12 | 51.15125 | -0.16650 | 907 ft | 181 kts | 77° |
| 2026-05-04 18:12 | 51.15367 | -0.14716 | 1919 ft | 179 kts | 77° |
| 2026-05-04 18:12 | 51.15615 | -0.12815 | 2689 ft | 183 kts | 76° |
| 2026-05-04 18:12 | 51.15902 | -0.10763 | 3161 ft | 199 kts | 76° |
| 2026-05-04 18:13 | 51.16204 | -0.08532 | 3637 ft | 216 kts | 77° |
| 2026-05-04 18:13 | 51.16530 | -0.06082 | 4089 ft | 237 kts | 77° |
| 2026-05-04 18:13 | 51.17231 | -0.00765 | 5417 ft | 261 kts | 77° |
| 2026-05-04 18:14 | 51.17604 | 0.02078 | 5846 ft | 269 kts | 77° |